Surubim, Brazil
Current Conditions -  °F | °C
As of 11:00 AM on Monday 24 Nov 2014 (Local Time) from SBKG Reporting Station
Broken Clouds Broken Clouds  
Wind Chill: 84°   Ceiling: 4000
Heat Index: 85°   Visibility: 6mi
Dew Point: 63°   Wind: 14mph
Humidity: 48%   Direction: 90°E
Pressure: 30.03"   Gusts: NA
Location:  7.83°S, 35.75°W
Report Text: SBKG 241400Z 09012KT 9999 BKN040 29/17 Q1017
Loading
Personal Weather Stations






























Interactive Weather Map New forecast layout! Learn more

10-Day Weather Forecast

Advertisements
Track Severe Weather on mobile